sensor_id;sensor_type;location;lat;lon;timestamp;temperature;humidity
52073;DHT22;38074;51.232;6.826;2022-11-11T00:04:17;24.20;46.30
52073;DHT22;38074;51.232;6.826;2022-11-11T00:11:32;24.20;46.30
52073;DHT22;38074;51.232;6.826;2022-11-11T00:18:48;24.20;46.30
52073;DHT22;38074;51.232;6.826;2022-11-11T00:26:25;24.20;46.20
52073;DHT22;38074;51.232;6.826;2022-11-11T00:33:41;24.20;46.10
52073;DHT22;38074;51.232;6.826;2022-11-11T00:40:57;24.20;46.30
52073;DHT22;38074;51.232;6.826;2022-11-11T00:48:12;24.30;46.20
52073;DHT22;38074;51.232;6.826;2022-11-11T00:55:47;24.30;46.20
52073;DHT22;38074;51.232;6.826;2022-11-11T01:03:03;24.20;46.10
52073;DHT22;38074;51.232;6.826;2022-11-11T01:10:19;24.20;46.10
52073;DHT22;38074;51.232;6.826;2022-11-11T01:17:53;24.20;46.10
52073;DHT22;38074;51.232;6.826;2022-11-11T01:25:09;24.20;46.10
52073;DHT22;38074;51.232;6.826;2022-11-11T01:32:24;24.20;46.10
52073;DHT22;38074;51.232;6.826;2022-11-11T01:39:40;24.20;46.10
52073;DHT22;38074;51.232;6.826;2022-11-11T01:46:57;24.20;46.10
52073;DHT22;38074;51.232;6.826;2022-11-11T01:54:19;24.20;46.00
52073;DHT22;38074;51.232;6.826;2022-11-11T02:01:36;24.20;46.00
52073;DHT22;38074;51.232;6.826;2022-11-11T02:08:52;24.20;46.00
52073;DHT22;38074;51.232;6.826;2022-11-11T02:16:08;24.20;46.00
52073;DHT22;38074;51.232;6.826;2022-11-11T02:24:06;24.20;46.00
52073;DHT22;38074;51.232;6.826;2022-11-11T02:31:29;24.10;45.80
52073;DHT22;38074;51.232;6.826;2022-11-11T02:38:46;24.20;45.90
52073;DHT22;38074;51.232;6.826;2022-11-11T02:46:03;24.10;45.80
52073;DHT22;38074;51.232;6.826;2022-11-11T02:53:19;24.10;45.80
52073;DHT22;38074;51.232;6.826;2022-11-11T03:00:35;24.10;45.80
52073;DHT22;38074;51.232;6.826;2022-11-11T03:07:50;24.10;45.80
52073;DHT22;38074;51.232;6.826;2022-11-11T03:15:06;24.10;45.80
52073;DHT22;38074;51.232;6.826;2022-11-11T03:22:22;24.10;45.80
52073;DHT22;38074;51.232;6.826;2022-11-11T03:29:37;24.10;45.70
52073;DHT22;38074;51.232;6.826;2022-11-11T03:36:53;24.10;45.80
52073;DHT22;38074;51.232;6.826;2022-11-11T03:44:27;24.10;45.60
52073;DHT22;38074;51.232;6.826;2022-11-11T03:51:42;24.10;45.60
52073;DHT22;38074;51.232;6.826;2022-11-11T03:58:58;24.10;45.60
52073;DHT22;38074;51.232;6.826;2022-11-11T04:06:13;24.10;45.60
52073;DHT22;38074;51.232;6.826;2022-11-11T04:13:48;24.10;45.60
52073;DHT22;38074;51.232;6.826;2022-11-11T04:21:23;24.10;45.60
52073;DHT22;38074;51.232;6.826;2022-11-11T04:28:57;24.10;45.50
52073;DHT22;38074;51.232;6.826;2022-11-11T04:36:39;24.10;45.60
52073;DHT22;38074;51.232;6.826;2022-11-11T04:43:54;24.10;45.50
52073;DHT22;38074;51.232;6.826;2022-11-11T04:51:29;24.10;45.50
52073;DHT22;38074;51.232;6.826;2022-11-11T04:59:04;24.10;45.50
52073;DHT22;38074;51.232;6.826;2022-11-11T05:06:31;24.10;45.40
52073;DHT22;38074;51.232;6.826;2022-11-11T05:14:06;24.10;45.40
52073;DHT22;38074;51.232;6.826;2022-11-11T05:21:40;24.10;45.40
52073;DHT22;38074;51.232;6.826;2022-11-11T05:28:56;24.00;45.30
52073;DHT22;38074;51.232;6.826;2022-11-11T05:36:11;24.10;45.40
52073;DHT22;38074;51.232;6.826;2022-11-11T05:43:27;24.10;45.30
52073;DHT22;38074;51.232;6.826;2022-11-11T05:50:42;24.10;45.40
52073;DHT22;38074;51.232;6.826;2022-11-11T05:57:58;24.00;45.30
52073;DHT22;38074;51.232;6.826;2022-11-11T06:12:41;24.00;45.20
52073;DHT22;38074;51.232;6.826;2022-11-11T06:20:16;24.00;45.20
52073;DHT22;38074;51.232;6.826;2022-11-11T06:27:31;24.00;45.30
52073;DHT22;38074;51.232;6.826;2022-11-11T06:34:47;24.10;45.60
52073;DHT22;38074;51.232;6.826;2022-11-11T06:42:03;24.10;45.60
52073;DHT22;38074;51.232;6.826;2022-11-11T06:49:18;24.10;45.80
52073;DHT22;38074;51.232;6.826;2022-11-11T06:56:34;24.10;45.80
52073;DHT22;38074;51.232;6.826;2022-11-11T07:03:50;24.10;45.70
52073;DHT22;38074;51.232;6.826;2022-11-11T07:11:06;24.10;45.70
52073;DHT22;38074;51.232;6.826;2022-11-11T07:18:21;24.10;45.80
52073;DHT22;38074;51.232;6.826;2022-11-11T07:25:37;24.20;45.90
52073;DHT22;38074;51.232;6.826;2022-11-11T07:32:53;24.20;46.00
52073;DHT22;38074;51.232;6.826;2022-11-11T07:40:10;24.20;46.60
52073;DHT22;38074;51.232;6.826;2022-11-11T07:47:26;24.20;46.00
52073;DHT22;38074;51.232;6.826;2022-11-11T07:54:42;24.20;46.10
52073;DHT22;38074;51.232;6.826;2022-11-11T08:01:57;24.20;46.10
52073;DHT22;38074;51.232;6.826;2022-11-11T08:09:13;24.20;46.10
52073;DHT22;38074;51.232;6.826;2022-11-11T08:16:29;24.20;46.10
52073;DHT22;38074;51.232;6.826;2022-11-11T08:23:44;24.20;46.20
52073;DHT22;38074;51.232;6.826;2022-11-11T08:31:00;24.20;46.20
52073;DHT22;38074;51.232;6.826;2022-11-11T08:38:16;24.20;46.10
52073;DHT22;38074;51.232;6.826;2022-11-11T08:45:31;24.20;46.10
52073;DHT22;38074;51.232;6.826;2022-11-11T08:52:48;24.20;46.10
52073;DHT22;38074;51.232;6.826;2022-11-11T09:00:05;24.20;46.10
52073;DHT22;38074;51.232;6.826;2022-11-11T09:07:20;24.20;46.10
52073;DHT22;38074;51.232;6.826;2022-11-11T09:14:36;24.10;46.00
52073;DHT22;38074;51.232;6.826;2022-11-11T09:21:51;24.20;46.00
52073;DHT22;38074;51.232;6.826;2022-11-11T09:29:07;24.20;46.10
52073;DHT22;38074;51.232;6.826;2022-11-11T09:36:23;24.20;46.10
52073;DHT22;38074;51.232;6.826;2022-11-11T09:43:54;24.20;46.00
52073;DHT22;38074;51.232;6.826;2022-11-11T09:51:22;24.20;46.00
52073;DHT22;38074;51.232;6.826;2022-11-11T09:58:50;24.20;46.00
52073;DHT22;38074;51.232;6.826;2022-11-11T10:06:15;24.20;46.00
52073;DHT22;38074;51.232;6.826;2022-11-11T10:13:34;24.20;46.00
52073;DHT22;38074;51.232;6.826;2022-11-11T10:20:55;24.20;46.10
52073;DHT22;38074;51.232;6.826;2022-11-11T10:28:17;24.20;46.60
52073;DHT22;38074;51.232;6.826;2022-11-11T10:35:33;24.20;45.80
52073;DHT22;38074;51.232;6.826;2022-11-11T10:42:49;24.20;45.60
52073;DHT22;38074;51.232;6.826;2022-11-11T10:57:36;24.10;45.30
52073;DHT22;38074;51.232;6.826;2022-11-11T11:04:57;24.10;45.20
52073;DHT22;38074;51.232;6.826;2022-11-11T11:12:40;24.10;45.20
52073;DHT22;38074;51.232;6.826;2022-11-11T11:20:19;24.10;45.10
52073;DHT22;38074;51.232;6.826;2022-11-11T11:27:35;24.10;44.80
52073;DHT22;38074;51.232;6.826;2022-11-11T11:34:54;24.10;44.60
52073;DHT22;38074;51.232;6.826;2022-11-11T11:42:33;24.10;44.10
52073;DHT22;38074;51.232;6.826;2022-11-11T11:57:26;24.10;44.20
52073;DHT22;38074;51.232;6.826;2022-11-11T12:12:58;24.00;43.20
52073;DHT22;38074;51.232;6.826;2022-11-11T12:20:27;24.00;43.50
52073;DHT22;38074;51.232;6.826;2022-11-11T12:27:59;24.10;43.80
52073;DHT22;38074;51.232;6.826;2022-11-11T12:35:30;24.10;44.00
52073;DHT22;38074;51.232;6.826;2022-11-11T12:50:23;24.10;44.00
52073;DHT22;38074;51.232;6.826;2022-11-11T13:27:48;24.20;44.40
52073;DHT22;38074;51.232;6.826;2022-11-11T13:35:30;24.20;44.40
52073;DHT22;38074;51.232;6.826;2022-11-11T13:42:49;24.20;44.50
52073;DHT22;38074;51.232;6.826;2022-11-11T13:57:48;24.20;44.40
52073;DHT22;38074;51.232;6.826;2022-11-11T14:12:47;24.30;44.60
52073;DHT22;38074;51.232;6.826;2022-11-11T14:27:47;24.40;44.20
52073;DHT22;38074;51.232;6.826;2022-11-11T14:35:20;24.40;44.30
52073;DHT22;38074;51.232;6.826;2022-11-11T14:49:53;24.40;44.80
52073;DHT22;38074;51.232;6.826;2022-11-11T14:57:17;24.40;44.20
52073;DHT22;38074;51.232;6.826;2022-11-11T15:04:36;24.30;44.00
52073;DHT22;38074;51.232;6.826;2022-11-11T15:20:00;24.30;44.00
52073;DHT22;38074;51.232;6.826;2022-11-11T15:27:38;24.30;44.00
52073;DHT22;38074;51.232;6.826;2022-11-11T15:35:23;24.30;44.00
52073;DHT22;38074;51.232;6.826;2022-11-11T15:42:43;24.30;43.90
52073;DHT22;38074;51.232;6.826;2022-11-11T15:50:27;24.20;44.00
52073;DHT22;38074;51.232;6.826;2022-11-11T15:57:43;24.20;44.00
52073;DHT22;38074;51.232;6.826;2022-11-11T16:05:06;24.20;44.20
52073;DHT22;38074;51.232;6.826;2022-11-11T16:12:37;24.30;45.10
52073;DHT22;38074;51.232;6.826;2022-11-11T16:19:57;24.40;44.70
52073;DHT22;38074;51.232;6.826;2022-11-11T16:27:18;24.40;44.80
52073;DHT22;38074;51.232;6.826;2022-11-11T16:34:39;24.40;44.80
52073;DHT22;38074;51.232;6.826;2022-11-11T16:41:56;24.40;44.80
52073;DHT22;38074;51.232;6.826;2022-11-11T16:49:36;24.30;44.80
52073;DHT22;38074;51.232;6.826;2022-11-11T16:56:58;24.30;44.90
52073;DHT22;38074;51.232;6.826;2022-11-11T17:04:14;24.30;44.90
52073;DHT22;38074;51.232;6.826;2022-11-11T17:18:54;24.30;45.10
52073;DHT22;38074;51.232;6.826;2022-11-11T17:26:09;24.30;45.10
52073;DHT22;38074;51.232;6.826;2022-11-11T17:33:25;24.30;45.20
52073;DHT22;38074;51.232;6.826;2022-11-11T17:40:45;24.30;45.20
52073;DHT22;38074;51.232;6.826;2022-11-11T17:48:01;24.30;45.20
52073;DHT22;38074;51.232;6.826;2022-11-11T17:55:17;24.20;45.20
52073;DHT22;38074;51.232;6.826;2022-11-11T18:02:32;24.30;45.30
52073;DHT22;38074;51.232;6.826;2022-11-11T18:09:48;24.20;45.30
52073;DHT22;38074;51.232;6.826;2022-11-11T18:17:04;24.20;45.30
52073;DHT22;38074;51.232;6.826;2022-11-11T18:24:19;24.20;45.40
52073;DHT22;38074;51.232;6.826;2022-11-11T18:31:35;24.20;45.40
52073;DHT22;38074;51.232;6.826;2022-11-11T18:38:51;24.20;45.40
52073;DHT22;38074;51.232;6.826;2022-11-11T18:46:09;24.20;45.40
52073;DHT22;38074;51.232;6.826;2022-11-11T18:53:28;24.20;45.50
52073;DHT22;38074;51.232;6.826;2022-11-11T19:00:44;24.20;45.40
52073;DHT22;38074;51.232;6.826;2022-11-11T19:07:59;24.20;45.50
52073;DHT22;38074;51.232;6.826;2022-11-11T19:15:15;24.20;45.50
52073;DHT22;38074;51.232;6.826;2022-11-11T19:22:31;24.20;45.70
52073;DHT22;38074;51.232;6.826;2022-11-11T19:29:47;24.20;45.80
52073;DHT22;38074;51.232;6.826;2022-11-11T19:37:02;24.20;45.90
52073;DHT22;38074;51.232;6.826;2022-11-11T19:44:23;24.20;46.00
52073;DHT22;38074;51.232;6.826;2022-11-11T19:51:39;24.20;46.00
52073;DHT22;38074;51.232;6.826;2022-11-11T19:58:54;24.20;46.00
52073;DHT22;38074;51.232;6.826;2022-11-11T20:06:39;24.20;45.90
52073;DHT22;38074;51.232;6.826;2022-11-11T20:13:55;24.20;45.90
52073;DHT22;38074;51.232;6.826;2022-11-11T20:21:12;24.20;46.00
52073;DHT22;38074;51.232;6.826;2022-11-11T20:28:27;24.10;45.80
52073;DHT22;38074;51.232;6.826;2022-11-11T20:35:43;24.10;45.80
52073;DHT22;38074;51.232;6.826;2022-11-11T20:43:00;24.10;45.80
52073;DHT22;38074;51.232;6.826;2022-11-11T20:50:16;24.10;45.80
52073;DHT22;38074;51.232;6.826;2022-11-11T20:57:32;24.10;45.80
52073;DHT22;38074;51.232;6.826;2022-11-11T21:04:47;24.10;45.80
52073;DHT22;38074;51.232;6.826;2022-11-11T21:12:03;24.10;45.60
52073;DHT22;38074;51.232;6.826;2022-11-11T21:19:19;24.00;45.40
52073;DHT22;38074;51.232;6.826;2022-11-11T21:26:35;24.00;45.40
52073;DHT22;38074;51.232;6.826;2022-11-11T21:33:58;24.00;45.30
52073;DHT22;38074;51.232;6.826;2022-11-11T21:41:16;24.00;45.20
52073;DHT22;38074;51.232;6.826;2022-11-11T21:48:32;24.00;45.20
52073;DHT22;38074;51.232;6.826;2022-11-11T21:55:48;24.00;45.20
52073;DHT22;38074;51.232;6.826;2022-11-11T22:03:03;24.00;45.10
52073;DHT22;38074;51.232;6.826;2022-11-11T22:10:18;24.00;45.00
52073;DHT22;38074;51.232;6.826;2022-11-11T22:17:34;24.00;45.00
52073;DHT22;38074;51.232;6.826;2022-11-11T22:24:49;23.90;44.80
52073;DHT22;38074;51.232;6.826;2022-11-11T22:32:05;23.90;44.80
52073;DHT22;38074;51.232;6.826;2022-11-11T22:39:20;23.90;44.80
52073;DHT22;38074;51.232;6.826;2022-11-11T22:46:36;23.90;44.80
52073;DHT22;38074;51.232;6.826;2022-11-11T23:01:18;23.90;44.70
52073;DHT22;38074;51.232;6.826;2022-11-11T23:08:34;23.90;44.70
52073;DHT22;38074;51.232;6.826;2022-11-11T23:15:54;23.90;44.70
52073;DHT22;38074;51.232;6.826;2022-11-11T23:23:09;23.90;44.70
52073;DHT22;38074;51.232;6.826;2022-11-11T23:30:25;23.90;44.70
52073;DHT22;38074;51.232;6.826;2022-11-11T23:37:40;23.90;44.60
52073;DHT22;38074;51.232;6.826;2022-11-11T23:44:56;23.90;44.50
52073;DHT22;38074;51.232;6.826;2022-11-11T23:52:11;23.90;44.50
52073;DHT22;38074;51.232;6.826;2022-11-11T23:59:27;23.90;44.50
